Time;durP1;ratioP1;P1;durP2;ratioP2;P2;SDS_P1;SDS_P2;PMS_P1;PMS_P2;Temp;Humidity;BMP_temperature;BMP_pressure;BME280_temperature;BME280_humidity;BME280_pressure;Samples;Min_cycle;Max_cycle;Signal;HPM_P1;HPM_P2
2022/03/09 00:00:58;;;;;;;26.38;24.17;;;;;;;-0.55;62.74;94872.41;5117828;28;20184;-65
2022/03/09 00:03:26;;;;;;;26.08;23.77;;;;;;;-0.56;62.76;94873.53;5117512;28;20216;-65
2022/03/09 00:05:53;;;;;;;25.33;23.23;;;;;;;-0.57;62.99;94871.91;5117525;28;20192;-65
2022/03/09 00:08:20;;;;;;;25.92;23.83;;;;;;;-0.61;62.97;94877.09;5117481;28;20184;-65
2022/03/09 00:10:47;;;;;;;25.88;23.77;;;;;;;-0.66;63.19;94876.34;5117502;27;20252;-65
2022/03/09 00:13:14;;;;;;;26.20;24.00;;;;;;;-0.65;63.62;94881.47;5117386;28;20180;-65
2022/03/09 00:15:41;;;;;;;26.15;23.95;;;;;;;-0.67;63.52;94874.72;5117934;28;20257;-65
2022/03/09 00:18:07;;;;;;;26.45;24.23;;;;;;;-0.68;63.66;94878.53;5117086;28;20183;-65
2022/03/09 00:20:36;;;;;;;26.35;24.08;;;;;;;-0.67;62.99;94880.94;5116542;27;20180;-65
2022/03/09 00:23:02;;;;;;;27.02;24.83;;;;;;;-0.70;63.53;94881.50;5116170;28;20220;-65
2022/03/09 00:25:29;;;;;;;25.50;23.40;;;;;;;-0.71;63.35;94874.50;5116255;28;20508;-65
2022/03/09 00:27:57;;;;;;;25.83;23.63;;;;;;;-0.74;63.21;94875.06;5117276;28;20258;-65
2022/03/09 00:30:24;;;;;;;25.40;23.30;;;;;;;-0.75;63.26;94870.75;5116394;28;20294;-64
2022/03/09 00:32:51;;;;;;;26.70;24.45;;;;;;;-0.76;63.12;94877.25;5117081;28;20180;-65
2022/03/09 00:35:18;;;;;;;26.73;24.50;;;;;;;-0.76;62.76;94869.94;5115934;28;20192;-65
2022/03/09 00:37:46;;;;;;;25.48;23.27;;;;;;;-0.79;62.80;94869.72;5116653;28;20184;-65
2022/03/09 00:40:13;;;;;;;25.55;23.33;;;;;;;-0.75;62.47;94862.63;5117006;28;20179;-65
2022/03/09 00:42:40;;;;;;;25.67;23.58;;;;;;;-0.77;62.41;94865.59;5116860;28;20223;-65
2022/03/09 00:45:08;;;;;;;25.08;23.08;;;;;;;-0.77;61.81;94867.50;5115506;28;20195;-65
2022/03/09 00:47:34;;;;;;;25.35;23.20;;;;;;;-0.77;61.46;94862.09;5116406;27;20191;-65
2022/03/09 00:50:01;;;;;;;24.52;22.42;;;;;;;-0.76;62.15;94864.53;5116356;28;20202;-65
2022/03/09 00:52:28;;;;;;;25.83;23.67;;;;;;;-0.76;61.56;94856.41;5116770;28;20188;-65
2022/03/09 00:54:56;;;;;;;25.23;23.02;;;;;;;-0.69;61.46;94858.78;5115733;28;20316;-65
2022/03/09 00:57:23;;;;;;;25.77;23.65;;;;;;;-0.69;61.40;94856.06;5115555;28;20203;-65
2022/03/09 00:59:50;;;;;;;25.13;23.02;;;;;;;-0.66;61.59;94852.75;5115839;28;20199;-65
2022/03/09 01:02:17;;;;;;;25.15;23.05;;;;;;;-0.66;61.26;94849.25;5116490;28;20249;-65
2022/03/09 01:04:44;;;;;;;25.42;23.33;;;;;;;-0.68;60.88;94844.13;5115555;28;20211;-65
2022/03/09 01:07:11;;;;;;;24.63;22.48;;;;;;;-0.69;60.51;94838.97;5116512;28;20221;-65
2022/03/09 01:09:37;;;;;;;24.15;22.13;;;;;;;-0.71;61.05;94842.00;5115994;27;20500;-65
2022/03/09 01:12:07;;;;;;;24.63;22.52;;;;;;;-0.69;60.92;94838.97;5115447;28;20259;-65
2022/03/09 01:14:33;;;;;;;25.13;23.02;;;;;;;-0.73;60.67;94839.59;5115393;28;20211;-65
2022/03/09 01:17:00;;;;;;;24.38;22.38;;;;;;;-0.74;60.66;94837.16;5116196;28;20184;-65
2022/03/09 01:19:27;;;;;;;23.75;21.75;;;;;;;-0.76;60.87;94833.94;5115145;28;20202;-65
2022/03/09 01:21:54;;;;;;;24.98;22.88;;;;;;;-0.76;60.57;94831.22;5115379;28;20199;-65
2022/03/09 01:24:21;;;;;;;25.63;23.30;;;;;;;-0.75;60.54;94824.72;5115329;28;20215;-65
2022/03/09 01:26:47;;;;;;;25.23;23.13;;;;;;;-0.75;60.79;94830.13;5115832;28;20514;-65
2022/03/09 01:29:16;;;;;;;24.58;22.55;;;;;;;-0.72;60.36;94834.97;5115997;28;20206;-65
2022/03/09 01:31:42;;;;;;;25.23;23.13;;;;;;;-0.71;60.25;94831.16;5114884;28;20601;-65
2022/03/09 01:34:09;;;;;;;25.45;23.33;;;;;;;-0.72;59.61;94826.84;5114849;28;20191;-65
2022/03/09 01:36:37;;;;;;;24.63;22.63;;;;;;;-0.71;59.72;94831.16;5114708;28;20203;-65
2022/03/09 01:39:04;;;;;;;24.77;22.63;;;;;;;-0.70;59.82;94832.75;5115618;28;20198;-65
2022/03/09 01:41:31;;;;;;;24.80;22.70;;;;;;;-0.67;59.99;94843.03;5115728;28;20198;-65
2022/03/09 01:44:11;;;;;;;26.05;23.75;;;;;;;-0.74;60.08;94832.53;5115384;28;20245;-65
2022/03/09 01:46:40;;;;;;;24.38;22.38;;;;;;;-0.73;59.52;94842.28;5115830;28;20183;-65
2022/03/09 01:49:08;;;;;;;24.65;22.60;;;;;;;-0.78;59.43;94833.41;5114945;28;20521;-65
2022/03/09 01:51:38;;;;;;;23.23;21.13;;;;;;;-0.84;59.22;94839.94;5115777;28;20184;-65
2022/03/09 01:54:05;;;;;;;23.52;21.63;;;;;;;-0.89;59.34;94834.59;5115589;28;20175;-64
2022/03/09 01:56:33;;;;;;;23.35;21.35;;;;;;;-0.81;60.04;94839.38;5115105;28;20204;-64
2022/03/09 01:59:02;;;;;;;25.10;23.00;;;;;;;-0.76;60.15;94839.34;5115512;28;20206;-64
2022/03/09 02:01:28;;;;;;;24.70;22.65;;;;;;;-0.70;60.11;94840.09;5115418;28;20188;-64
2022/03/09 02:03:57;;;;;;;24.48;22.48;;;;;;;-0.71;58.91;94847.41;5115536;28;20235;-64
2022/03/09 02:06:24;;;;;;;24.40;22.40;;;;;;;-0.68;59.38;94844.13;5114821;28;20601;-64
2022/03/09 02:11:35;;;;;;;23.95;21.95;;;;;;;-0.74;59.29;94837.16;5115684;28;20176;-65
2022/03/09 02:14:02;;;;;;;24.33;22.33;;;;;;;-0.70;58.96;94842.78;5114346;28;20199;-65
2022/03/09 02:16:29;;;;;;;24.38;22.40;;;;;;;-0.83;58.65;94834.28;5115453;28;20187;-65
2022/03/09 02:18:57;;;;;;;24.00;22.00;;;;;;;-0.78;59.05;94834.19;5114642;28;20195;-65
2022/03/09 02:21:26;;;;;;;24.10;22.10;;;;;;;-0.75;58.56;94832.81;5115028;28;20255;-65
2022/03/09 02:23:55;;;;;;;23.92;21.92;;;;;;;-0.74;58.96;94837.94;5115562;28;20214;-65
2022/03/09 02:26:22;;;;;;;24.75;22.65;;;;;;;-0.70;59.06;94837.38;5115396;28;20187;-65
2022/03/09 02:28:49;;;;;;;23.95;22.05;;;;;;;-0.70;58.81;94842.78;5115432;28;20199;-65
2022/03/09 02:31:15;;;;;;;24.60;22.60;;;;;;;-0.70;58.92;94842.78;5114537;28;20206;-65
2022/03/09 02:33:45;;;;;;;23.58;21.58;;;;;;;-0.75;58.99;94830.13;5114413;28;20195;-65
2022/03/09 02:36:11;;;;;;;24.70;22.63;;;;;;;-0.76;59.20;94834.75;5114504;28;20204;-65
2022/03/09 02:38:38;;;;;;;23.92;21.92;;;;;;;-0.77;59.52;94832.28;5114081;28;20261;-65
2022/03/09 02:41:06;;;;;;;24.17;22.17;;;;;;;-0.78;59.05;94826.06;5115116;28;20176;-65
2022/03/09 02:43:33;;;;;;;24.73;22.52;;;;;;;-0.78;58.83;94830.69;5114391;28;20235;-65
2022/03/09 02:46:00;;;;;;;24.02;22.10;;;;;;;-0.78;58.95;94828.78;5118869;28;20184;-65
2022/03/09 02:48:27;;;;;;;24.75;22.65;;;;;;;-0.82;58.94;94835.06;5118206;28;20295;-65
2022/03/09 02:50:53;;;;;;;24.83;22.73;;;;;;;-0.89;58.95;94832.69;5118449;28;20198;-65
2022/03/09 02:53:20;;;;;;;24.02;21.92;;;;;;;-0.90;59.12;94836.50;5119018;28;20194;-65
2022/03/09 02:55:47;;;;;;;25.27;23.05;;;;;;;-0.89;59.28;94831.91;5118037;28;20205;-65
2022/03/09 02:58:15;;;;;;;23.73;21.73;;;;;;;-0.82;59.78;94841.28;5118561;28;20493;-65
2022/03/09 03:00:42;;;;;;;24.75;22.75;;;;;;;-0.79;59.25;94846.13;5118913;28;20180;-65
2022/03/09 03:03:09;;;;;;;24.35;22.25;;;;;;;-0.76;59.20;94836.63;5118135;28;20218;-65
2022/03/09 03:05:36;;;;;;;24.50;22.50;;;;;;;-0.77;58.78;94835.81;5118689;28;20206;-65
2022/03/09 03:08:03;;;;;;;24.63;22.52;;;;;;;-0.76;58.94;94834.75;5118691;28;20589;-65
2022/03/09 03:10:30;;;;;;;23.88;21.88;;;;;;;-0.78;58.31;94834.19;5117439;28;20202;-65
2022/03/09 03:12:56;;;;;;;24.60;22.55;;;;;;;-0.82;58.67;94835.88;5117786;28;20213;-65
2022/03/09 03:15:25;;;;;;;24.83;22.73;;;;;;;-0.86;59.60;94834.84;5117576;28;20195;-65
2022/03/09 03:17:51;;;;;;;25.30;23.25;;;;;;;-0.90;58.85;94841.91;5118263;28;20188;-65
2022/03/09 03:20:18;;;;;;;24.50;22.48;;;;;;;-0.91;59.13;94842.19;5118760;28;20195;-65
2022/03/09 03:22:45;;;;;;;24.75;22.73;;;;;;;-0.90;59.38;94839.22;5118405;28;20196;-65
2022/03/09 03:25:12;;;;;;;24.77;22.52;;;;;;;-0.89;59.43;94843.53;5118267;28;20211;-65
2022/03/09 03:27:39;;;;;;;25.10;22.95;;;;;;;-0.90;59.37;94844.63;5117497;28;20215;-65
2022/03/09 03:30:07;;;;;;;24.35;22.27;;;;;;;-0.89;59.18;94845.44;5117424;28;20256;-65
2022/03/09 03:32:35;;;;;;;24.80;22.70;;;;;;;-0.88;59.07;94847.84;5118333;28;20179;-65
2022/03/09 03:35:01;;;;;;;24.25;22.30;;;;;;;-0.94;58.50;94845.47;5118332;28;20194;-65
2022/03/09 03:37:28;;;;;;;24.65;22.65;;;;;;;-0.95;59.46;94839.25;5117832;28;20184;-64
2022/03/09 03:39:55;;;;;;;23.65;21.75;;;;;;;-0.93;59.36;94845.19;5117239;28;20217;-64
2022/03/09 03:42:22;;;;;;;24.90;22.80;;;;;;;-0.98;58.48;94843.34;5117035;28;20240;-64
2022/03/09 03:44:49;;;;;;;24.77;22.77;;;;;;;-1.02;58.53;94852.31;5116965;28;20216;-64
2022/03/09 03:47:15;;;;;;;24.23;22.23;;;;;;;-1.00;60.00;94850.13;5117023;28;20224;-64
2022/03/09 03:49:43;;;;;;;23.95;21.95;;;;;;;-0.95;58.87;94846.56;5118475;28;20184;-64
2022/03/09 03:52:10;;;;;;;24.67;22.55;;;;;;;-0.95;58.67;94846.56;5116705;28;20199;-64
2022/03/09 03:54:37;;;;;;;23.70;21.77;;;;;;;-1.00;58.11;94850.94;5117886;28;20184;-64
2022/03/09 03:57:04;;;;;;;24.73;22.63;;;;;;;-1.03;59.04;94850.69;5116964;28;20199;-64
2022/03/09 03:59:31;;;;;;;24.40;22.40;;;;;;;-1.03;58.69;94848.00;5116497;28;20566;-64
2022/03/09 04:01:59;;;;;;;23.58;21.67;;;;;;;-1.00;58.82;94842.81;5117732;28;20180;-64
2022/03/09 04:04:25;;;;;;;23.42;21.52;;;;;;;-0.99;58.89;94846.31;5117875;28;20208;-65
2022/03/09 04:06:54;;;;;;;24.20;22.17;;;;;;;-1.02;58.93;94841.47;5117659;28;20180;-66
2022/03/09 04:09:21;;;;;;;23.63;21.65;;;;;;;-1.01;59.42;94843.91;5117706;28;20188;-66
2022/03/09 04:11:47;;;;;;;23.65;21.65;;;;;;;-0.98;58.98;94847.97;5117244;28;20184;-66
2022/03/09 04:14:15;;;;;;;24.50;22.50;;;;;;;-1.01;58.37;94840.41;5116633;28;20420;-65
2022/03/09 04:16:41;;;;;;;25.10;23.00;;;;;;;-1.11;59.15;94841.31;5117211;28;20274;-72
2022/03/09 04:19:08;;;;;;;24.35;22.25;;;;;;;-1.10;58.80;94839.41;5116443;28;20207;-64
2022/03/09 04:21:35;;;;;;;24.70;22.65;;;;;;;-1.13;58.64;94842.66;5116314;28;20535;-64
2022/03/09 04:24:05;;;;;;;22.57;20.37;;;;;;;-1.12;58.70;94842.41;5116772;28;20451;-66
2022/03/09 04:26:31;;;;;;;21.73;19.73;;;;;;;-1.09;58.45;94839.13;5116423;28;20474;-64
2022/03/09 04:28:58;;;;;;;20.17;18.38;;;;;;;-1.04;58.66;94844.47;5117676;28;20194;-65
2022/03/09 04:31:25;;;;;;;19.13;17.17;;;;;;;-1.03;58.97;94848.81;5116461;28;20204;-64
2022/03/09 04:33:52;;;;;;;20.27;18.48;;;;;;;-1.03;58.43;94842.59;5116813;28;20178;-65
2022/03/09 04:36:19;;;;;;;24.00;22.10;;;;;;;-1.04;58.31;94847.19;5115811;28;20208;-65
2022/03/09 04:38:46;;;;;;;23.38;21.38;;;;;;;-1.02;58.29;94846.91;5116187;28;20210;-65
2022/03/09 04:41:14;;;;;;;24.17;22.27;;;;;;;-1.12;58.36;94842.41;5116633;28;20576;-65
2022/03/09 04:43:41;;;;;;;24.73;22.67;;;;;;;-1.16;58.46;94838.66;5116460;28;20239;-69
2022/03/09 04:46:08;;;;;;;24.48;22.48;;;;;;;-1.15;58.49;94844.88;5116565;28;20317;-70
2022/03/09 04:48:35;;;;;;;24.08;21.98;;;;;;;-1.16;57.92;94841.34;5115593;28;20195;-67
2022/03/09 04:51:04;;;;;;;24.30;22.30;;;;;;;-1.19;58.91;94846.53;5116489;28;20190;-65
2022/03/09 04:53:31;;;;;;;25.38;23.27;;;;;;;-1.13;58.51;94854.28;5116569;28;20206;-65
2022/03/09 04:55:58;;;;;;;25.20;23.15;;;;;;;-1.08;58.38;94850.75;5116065;28;20191;-65
2022/03/09 04:58:26;;;;;;;25.25;23.17;;;;;;;-1.08;58.93;94853.47;5116623;28;20184;-65
2022/03/09 05:00:53;;;;;;;25.70;23.58;;;;;;;-1.16;58.47;94856.75;5115611;28;20199;-65
2022/03/09 05:03:20;;;;;;;24.23;22.20;;;;;;;-1.21;58.56;94852.22;5116418;28;20183;-65
2022/03/09 05:05:47;;;;;;;24.13;22.02;;;;;;;-1.17;59.29;94858.66;5116680;28;20204;-65
2022/03/09 05:08:14;;;;;;;24.50;22.50;;;;;;;-1.11;59.04;94865.66;5115813;28;20188;-65
2022/03/09 05:10:40;;;;;;;24.08;22.08;;;;;;;-1.08;59.30;94856.97;5115426;28;20210;-65
2022/03/09 05:13:07;;;;;;;24.58;22.48;;;;;;;-1.07;59.01;94866.72;5116296;27;20196;-65
2022/03/09 05:15:35;;;;;;;22.65;20.73;;;;;;;-1.04;58.60;94870.75;5115984;28;20204;-65
2022/03/09 05:18:02;;;;;;;24.80;22.90;;;;;;;-1.03;59.46;94865.03;5116216;28;20528;-64
2022/03/09 05:20:29;;;;;;;25.35;23.15;;;;;;;-1.05;58.70;94875.38;5115342;28;20209;-64
2022/03/09 05:22:56;;;;;;;24.58;22.58;;;;;;;-1.08;58.57;94872.41;5116144;28;20192;-64
2022/03/09 05:25:23;;;;;;;24.90;22.83;;;;;;;-1.05;58.93;94871.84;5114746;28;20219;-65
2022/03/09 05:27:50;;;;;;;25.00;22.92;;;;;;;-1.09;58.91;94873.47;5114876;28;20203;-65
2022/03/09 05:30:17;;;;;;;26.15;23.95;;;;;;;-1.06;58.28;94876.44;5115805;28;20180;-65
2022/03/09 05:32:45;;;;;;;25.88;23.67;;;;;;;-1.03;58.85;94878.56;5116029;28;20230;-65
2022/03/09 05:35:12;;;;;;;26.08;24.02;;;;;;;-0.99;58.75;94882.31;5115912;28;20184;-65
2022/03/09 05:37:40;;;;;;;26.90;24.70;;;;;;;-0.94;58.57;94877.94;5115928;28;20268;-65
2022/03/09 05:40:08;;;;;;;25.60;23.50;;;;;;;-0.95;58.83;94887.19;5115868;28;20195;-65
2022/03/09 05:42:35;;;;;;;25.95;23.77;;;;;;;-0.96;59.14;94880.97;5114819;28;20231;-65
2022/03/09 05:45:02;;;;;;;27.05;24.83;;;;;;;-0.99;58.16;94882.31;5115460;28;20208;-65
2022/03/09 05:47:30;;;;;;;26.90;24.60;;;;;;;-1.02;59.33;94891.03;5115002;28;20324;-65
2022/03/09 05:49:58;;;;;;;27.67;25.38;;;;;;;-1.02;58.93;94887.50;5115426;28;20196;-65
2022/03/09 05:52:25;;;;;;;26.38;24.15;;;;;;;-1.01;59.20;94895.34;5115122;28;20539;-65
2022/03/09 05:54:52;;;;;;;27.58;25.30;;;;;;;-0.99;59.34;94890.44;5115715;28;20188;-65
2022/03/09 05:57:20;;;;;;;27.00;24.70;;;;;;;-1.02;58.65;94892.91;5114861;28;20227;-65
2022/03/09 05:59:47;;;;;;;26.88;24.67;;;;;;;-1.03;59.41;94892.13;5115153;28;20214;-65
2022/03/09 06:02:14;;;;;;;26.15;24.15;;;;;;;-1.00;59.19;94902.38;5115007;28;20206;-65
2022/03/09 06:04:40;;;;;;;24.35;22.35;;;;;;;-1.00;58.65;94894.25;5114266;28;20213;-65
2022/03/09 06:07:08;;;;;;;24.70;22.70;;;;;;;-0.94;58.33;94896.91;5115564;28;20198;-65
2022/03/09 06:09:35;;;;;;;24.88;22.77;;;;;;;-0.93;58.48;94896.63;5115229;28;20183;-65
2022/03/09 06:12:02;;;;;;;24.60;22.60;;;;;;;-0.88;58.97;94896.56;5115271;28;20199;-65
2022/03/09 06:14:29;;;;;;;24.95;22.88;;;;;;;-0.87;58.78;94900.09;5114510;28;20266;-65
2022/03/09 06:16:56;;;;;;;24.95;22.88;;;;;;;-0.91;57.87;94893.63;5115536;28;20222;-65
2022/03/09 06:19:22;;;;;;;25.65;23.63;;;;;;;-0.89;58.30;94896.88;5117363;28;20183;-65
2022/03/09 06:21:49;;;;;;;27.48;25.27;;;;;;;-0.93;58.40;94902.06;5119679;28;20187;-65
2022/03/09 06:24:18;;;;;;;28.10;25.80;;;;;;;-0.93;58.01;94907.47;5119724;28;20195;-65
2022/03/09 06:26:45;;;;;;;29.10;26.70;;;;;;;-0.99;57.99;94900.47;5119028;28;20260;-65
2022/03/09 06:29:12;;;;;;;26.73;24.52;;;;;;;-0.91;58.15;94909.88;5119234;28;20214;-65
2022/03/09 06:31:39;;;;;;;25.15;22.98;;;;;;;-0.78;58.42;94903.81;5118306;28;20201;-65
2022/03/09 06:34:05;;;;;;;26.15;23.95;;;;;;;-0.67;58.13;94913.44;5119401;28;20184;-65
2022/03/09 06:36:32;;;;;;;26.13;23.92;;;;;;;-0.67;58.70;94915.34;5119042;28;20188;-65
2022/03/09 06:38:59;;;;;;;24.05;22.15;;;;;;;-0.63;57.71;94909.06;5119260;28;20184;-65
2022/03/09 06:41:27;;;;;;;25.48;23.45;;;;;;;-0.57;57.98;94913.34;5118150;28;20294;-65
2022/03/09 06:43:55;;;;;;;24.75;22.65;;;;;;;-0.56;57.18;94914.16;5118721;28;20607;-65
2022/03/09 06:46:22;;;;;;;24.55;22.45;;;;;;;-0.47;57.22;94912.47;5118217;28;20272;-65
2022/03/09 06:48:49;;;;;;;22.58;20.88;;;;;;;-0.43;57.43;94904.56;5119121;28;20257;-65
2022/03/09 06:51:16;;;;;;;23.50;21.60;;;;;;;-0.33;57.13;94916.09;5118081;28;20195;-65
2022/03/09 06:53:44;;;;;;;23.65;21.75;;;;;;;-0.19;57.66;94921.63;5119095;27;20203;-65
2022/03/09 06:56:11;;;;;;;23.85;21.95;;;;;;;-0.09;56.06;94913.38;5118952;28;20661;-65
2022/03/09 06:58:39;;;;;;;23.63;21.73;;;;;;;-0.08;55.82;94922.31;5117737;28;20273;-65
2022/03/09 07:01:06;;;;;;;23.73;21.83;;;;;;;-0.02;57.09;94921.97;5117960;28;20583;-65
2022/03/09 07:03:33;;;;;;;22.60;20.88;;;;;;;-0.02;55.63;94921.16;5118028;28;20206;-65
2022/03/09 07:06:00;;;;;;;23.95;22.02;;;;;;;-0.05;55.72;94916.31;5117924;28;20216;-65
2022/03/09 07:08:27;;;;;;;23.80;21.77;;;;;;;-0.02;56.28;94923.88;5118988;28;20218;-65
2022/03/09 07:10:54;;;;;;;22.75;20.88;;;;;;;-0.02;56.03;94929.28;5118153;28;20192;-65
2022/03/09 07:13:21;;;;;;;24.10;22.17;;;;;;;-0.16;55.92;94926.47;5119319;28;20184;-65
2022/03/09 07:15:49;;;;;;;25.38;23.27;;;;;;;-0.13;55.71;94922.38;5118025;28;20621;-65
2022/03/09 07:18:16;;;;;;;26.77;24.48;;;;;;;-0.06;56.55;94923.63;5118360;28;20194;-65
2022/03/09 07:20:43;;;;;;;26.50;24.30;;;;;;;-0.08;56.24;94923.09;5118487;28;20219;-65
2022/03/09 07:23:10;;;;;;;26.30;24.20;;;;;;;-0.08;55.64;94914.16;5118434;28;20184;-65
2022/03/09 07:25:37;;;;;;;27.13;24.83;;;;;;;-0.12;56.10;94913.94;5118633;28;20199;-65
2022/03/09 07:28:04;;;;;;;27.50;25.15;;;;;;;-0.03;56.46;94920.34;5118125;28;20183;-65
2022/03/09 07:30:31;;;;;;;24.50;22.58;;;;;;;-0.01;55.93;94914.63;5117065;28;20593;-65
2022/03/09 07:32:59;;;;;;;24.63;22.63;;;;;;;0.17;56.70;94913.03;5117622;28;20264;-65
2022/03/09 07:35:26;;;;;;;24.40;22.40;;;;;;;0.35;56.47;94912.25;5116901;28;20605;-65
2022/03/09 07:37:53;;;;;;;24.42;22.42;;;;;;;0.50;56.42;94915.88;5118394;28;20211;-65
2022/03/09 07:40:21;;;;;;;23.98;21.98;;;;;;;0.63;55.72;94902.38;5118370;28;20245;-65
2022/03/09 07:42:48;;;;;;;22.55;20.73;;;;;;;0.68;54.43;94905.00;5116890;28;20231;-65
2022/03/09 07:45:14;;;;;;;22.60;20.80;;;;;;;0.76;53.82;94908.16;5116875;28;20191;-65
2022/03/09 07:47:41;;;;;;;22.35;20.55;;;;;;;0.81;54.18;94905.38;5118091;28;20195;-65
2022/03/09 07:50:10;;;;;;;21.50;19.80;;;;;;;0.86;54.08;94902.56;5117152;28;20200;-65
2022/03/09 07:52:37;;;;;;;22.48;20.50;;;;;;;0.92;53.90;94902.19;5117303;28;20200;-65
2022/03/09 07:55:04;;;;;;;22.42;20.45;;;;;;;0.96;54.43;94896.97;5118120;28;20267;-65
2022/03/09 07:57:31;;;;;;;22.30;20.50;;;;;;;1.11;55.32;94898.63;5117772;28;20189;-65
2022/03/09 07:59:58;;;;;;;22.55;20.75;;;;;;;0.99;55.13;94898.31;5117908;28;20190;-65
2022/03/09 08:02:25;;;;;;;21.30;19.67;;;;;;;1.05;54.82;94891.66;5117881;28;20176;-65
2022/03/09 08:04:52;;;;;;;21.60;19.88;;;;;;;1.03;54.76;94894.69;5117151;28;20207;-65
2022/03/09 08:07:20;;;;;;;22.20;20.40;;;;;;;0.93;55.27;94892.13;5116513;28;20211;-65
2022/03/09 08:09:47;;;;;;;22.08;20.27;;;;;;;0.99;56.17;94892.88;5117099;28;20210;-65
2022/03/09 08:12:13;;;;;;;22.35;20.55;;;;;;;1.04;55.37;94892.78;5116708;28;20199;-65
2022/03/09 08:14:40;;;;;;;22.15;20.25;;;;;;;1.05;55.35;94894.38;5116241;28;20200;-65
2022/03/09 08:17:07;;;;;;;23.60;21.73;;;;;;;1.24;55.89;94887.00;5116656;28;20188;-65
2022/03/09 08:19:34;;;;;;;22.63;20.73;;;;;;;1.16;55.70;94893.94;5116362;28;20651;-65
2022/03/09 08:22:01;;;;;;;21.77;19.98;;;;;;;1.24;54.48;94897.09;5117292;28;20283;-65
2022/03/09 08:24:29;;;;;;;22.17;20.33;;;;;;;1.28;55.40;94889.94;5117290;28;20199;-65
2022/03/09 08:26:56;;;;;;;21.90;20.15;;;;;;;1.35;55.22;94887.66;5116362;28;20227;-65
2022/03/09 08:29:22;;;;;;;23.13;21.23;;;;;;;1.33;56.37;94884.41;5117095;28;20184;-65
2022/03/09 08:31:49;;;;;;;24.95;22.75;;;;;;;1.40;56.29;94891.06;5117131;28;20204;-65
2022/03/09 08:34:16;;;;;;;26.17;23.88;;;;;;;1.35;56.51;94879.50;5116984;28;20188;-65
2022/03/09 08:36:43;;;;;;;24.77;22.58;;;;;;;1.52;56.41;94881.63;5116840;28;20188;-65
2022/03/09 08:39:09;;;;;;;25.10;23.00;;;;;;;1.62;57.02;94882.22;5115697;28;20192;-65
2022/03/09 08:41:38;;;;;;;24.00;22.02;;;;;;;1.66;55.34;94877.81;5116556;28;20272;-65
2022/03/09 08:44:05;;;;;;;22.92;21.10;;;;;;;1.62;56.01;94881.44;5115674;28;20236;-65
2022/03/09 08:46:31;;;;;;;23.30;21.33;;;;;;;1.66;56.34;94882.44;5117316;28;20214;-65
2022/03/09 08:48:58;;;;;;;25.05;22.88;;;;;;;1.67;56.09;94882.16;5116129;28;20203;-65
2022/03/09 08:51:25;;;;;;;25.83;23.60;;;;;;;1.69;56.36;94887.28;5115751;28;20492;-65
2022/03/09 08:53:52;;;;;;;24.33;22.13;;;;;;;1.61;56.69;94886.06;5115697;28;20196;-65
2022/03/09 08:56:20;;;;;;;26.58;24.27;;;;;;;1.88;56.41;94881.75;5116638;28;20180;-65
2022/03/09 08:58:48;;;;;;;26.83;24.33;;;;;;;1.98;56.85;94878.81;5116629;28;20284;-65
2022/03/09 09:01:15;;;;;;;24.35;22.05;;;;;;;2.17;55.17;94871.34;5116561;28;20187;-65
2022/03/09 09:03:42;;;;;;;25.15;22.90;;;;;;;2.22;54.93;94877.81;5116656;28;20206;-65
2022/03/09 09:06:09;;;;;;;23.35;21.40;;;;;;;2.25;54.88;94878.00;5116545;28;20208;-65
2022/03/09 09:08:36;;;;;;;24.55;22.45;;;;;;;2.22;55.35;94867.72;5116256;28;20557;-65
2022/03/09 09:11:03;;;;;;;23.40;21.40;;;;;;;2.30;55.45;94877.06;5116565;28;20184;-65
2022/03/09 09:13:29;;;;;;;23.08;21.17;;;;;;;2.30;54.55;94868.91;5116060;28;20195;-65
2022/03/09 09:15:57;;;;;;;24.40;22.40;;;;;;;2.26;54.96;94868.72;5116072;28;20184;-65
2022/03/09 09:18:25;;;;;;;23.35;21.45;;;;;;;2.40;55.15;94869.50;5115447;28;20195;-65
2022/03/09 09:20:53;;;;;;;23.85;21.85;;;;;;;2.55;55.31;94864.81;5116535;28;20276;-65
2022/03/09 09:23:21;;;;;;;21.85;20.05;;;;;;;2.62;54.07;94866.00;5116065;28;20187;-65
2022/03/09 09:25:48;;;;;;;21.73;20.00;;;;;;;2.86;53.37;94865.69;5116410;28;20268;-65
2022/03/09 09:28:16;;;;;;;22.20;20.33;;;;;;;3.04;53.89;94863.91;5115591;28;20306;-65
2022/03/09 09:30:43;;;;;;;20.95;19.25;;;;;;;3.27;51.42;94875.63;5116377;28;20176;-65
2022/03/09 09:33:12;;;;;;;21.98;20.05;;;;;;;3.39;52.60;94866.88;5115657;28;20594;-65
2022/03/09 09:35:38;;;;;;;21.77;19.98;;;;;;;3.51;51.64;94863.56;5116057;28;20176;-65
2022/03/09 09:38:08;;;;;;;22.08;20.17;;;;;;;3.73;52.55;94859.97;5115064;28;20192;-65
2022/03/09 09:40:36;;;;;;;21.10;19.38;;;;;;;4.15;51.10;94868.63;5114854;28;20191;-65
2022/03/09 09:43:07;;;;;;;19.60;18.00;;;;;;;4.48;51.17;94861.63;5115942;28;20235;-65
2022/03/09 09:45:35;;;;;;;22.05;20.20;;;;;;;4.46;52.48;94863.06;5115922;28;20207;-65
2022/03/09 09:48:02;;;;;;;20.08;18.48;;;;;;;4.48;48.67;94850.72;5114968;28;20257;-65
2022/03/09 09:50:31;;;;;;;17.92;16.42;;;;;;;4.48;48.21;94864.38;5115225;28;20546;-65
2022/03/09 09:52:57;;;;;;;19.77;18.17;;;;;;;4.35;49.87;94859.84;5114602;28;20192;-65
2022/03/09 09:55:27;;;;;;;19.80;18.15;;;;;;;4.32;50.69;94855.84;5114521;28;20212;-65
2022/03/09 09:57:55;;;;;;;19.25;17.75;;;;;;;4.38;49.70;94856.47;5115688;28;20179;-65
2022/03/09 10:00:22;;;;;;;19.05;17.50;;;;;;;4.44;50.41;94857.94;5115331;28;20184;-65
2022/03/09 10:02:48;;;;;;;18.13;16.70;;;;;;;4.50;49.50;94862.13;5115335;28;20278;-65
2022/03/09 10:05:17;;;;;;;18.60;17.10;;;;;;;3.98;47.98;94862.00;5114583;28;20203;-65
2022/03/09 10:08:18;;;;;;;19.75;18.05;;;;;;;3.92;49.76;94859.72;5115478;28;20210;-65
2022/03/09 10:10:46;;;;;;;19.40;17.80;;;;;;;3.71;49.54;94851.31;5115142;28;20209;-65
2022/03/09 10:13:15;;;;;;;18.80;17.30;;;;;;;3.65;48.94;94860.75;5114524;28;20199;-65
2022/03/09 10:15:43;;;;;;;19.23;17.63;;;;;;;3.90;50.36;94859.25;5116172;28;20198;-65
2022/03/09 10:18:14;;;;;;;19.33;17.67;;;;;;;4.07;48.34;94845.66;5115159;28;20176;-65
2022/03/09 10:20:41;;;;;;;19.08;17.38;;;;;;;3.92;49.33;94848.81;5114538;28;20198;-65
2022/03/09 10:23:09;;;;;;;17.98;16.58;;;;;;;4.03;49.99;94850.13;5114483;28;20194;-65
2022/03/09 10:25:38;;;;;;;17.80;16.27;;;;;;;4.40;50.10;94845.25;5114607;28;20267;-65
2022/03/09 10:28:07;;;;;;;16.80;15.40;;;;;;;4.77;49.66;94852.03;5115398;28;20199;-65
2022/03/09 10:30:36;;;;;;;14.73;13.57;;;;;;;5.20;47.00;94848.47;5114621;28;20200;-65
2022/03/09 10:33:04;;;;;;;15.93;14.65;;;;;;;5.53;44.78;94841.31;5115679;28;20180;-65
2022/03/09 10:35:47;;;;;;;15.82;14.50;;;;;;;5.92;44.52;94844.03;5114539;28;20213;-65
2022/03/09 10:38:26;;;;;;;16.13;14.73;;;;;;;6.33;44.27;94839.88;5114106;28;20544;-65
2022/03/09 10:40:56;;;;;;;16.40;15.00;;;;;;;6.70;43.75;94841.69;5114454;28;20199;-65
2022/03/09 10:43:25;;;;;;;15.30;14.10;;;;;;;6.82;45.07;94837.41;5113893;28;20231;-65
2022/03/09 10:45:59;;;;;;;15.68;14.48;;;;;;;6.83;43.69;94833.56;5114328;28;20249;-65
2022/03/09 10:48:26;;;;;;;16.50;15.20;;;;;;;6.72;44.61;94842.19;5114928;28;20198;-65
2022/03/09 10:50:53;;;;;;;16.88;15.38;;;;;;;6.86;44.13;94838.34;5115188;28;20184;-65
2022/03/09 10:53:20;;;;;;;16.40;15.05;;;;;;;7.04;42.80;94833.53;5114169;28;20188;-65
2022/03/09 10:55:47;;;;;;;16.73;15.43;;;;;;;7.20;42.93;94826.28;5115371;28;20198;-65
2022/03/09 10:58:17;;;;;;;15.20;13.85;;;;;;;7.51;41.63;94825.00;5115254;28;20191;-65
2022/03/09 11:00:45;;;;;;;15.82;14.45;;;;;;;7.73;42.16;94832.81;5115329;28;20176;-65
2022/03/09 11:03:15;;;;;;;16.17;14.88;;;;;;;8.03;39.83;94827.16;5114950;28;20310;-65
2022/03/09 11:05:50;;;;;;;15.25;14.05;;;;;;;8.03;39.94;94824.44;5117354;28;20197;-65
2022/03/09 11:08:18;;;;;;;17.05;15.60;;;;;;;8.07;39.26;94815.16;5117829;28;20246;-65
2022/03/09 11:10:46;;;;;;;17.90;16.35;;;;;;;8.29;39.84;94813.09;5119010;28;20191;-65
2022/03/09 11:13:15;;;;;;;15.90;14.52;;;;;;;8.23;39.24;94817.19;5118653;28;20223;-65
2022/03/09 11:15:43;;;;;;;15.38;14.27;;;;;;;8.19;38.47;94812.38;5117719;28;20231;-65
2022/03/09 11:18:11;;;;;;;17.05;15.55;;;;;;;8.34;40.34;94808.16;5117764;28;20191;-65
2022/03/09 11:20:38;;;;;;;17.33;15.82;;;;;;;8.85;39.34;94807.75;5118551;28;20202;-65
2022/03/09 11:23:05;;;;;;;18.42;16.90;;;;;;;9.10;38.58;94803.75;5118684;28;20194;-65